Time;durP1;ratioP1;P1;durP2;ratioP2;P2;SDS_P1;SDS_P2;PMS_P1;PMS_P2;Temp;Humidity;BMP_temperature;BMP_pressure;BME280_temperature;BME280_humidity;BME280_pressure;Samples;Min_cycle;Max_cycle;Signal;HPM_P1;HPM_P2
2021/07/08 00:01:45;;;;;;;;;;;;;;;;;;5052663;28;19926;-65
2021/07/08 00:04:12;;;;;;;;;;;;;;;;;;5055931;28;20025;-66
2021/07/08 00:06:39;;;;;;;;;;;;;;;;;;5049844;28;20038;-64
2021/07/08 00:09:06;;;;;;;;;;;;;;;;;;5052850;28;19926;-65
2021/07/08 00:11:33;;;;;;;;;;;;;;;;;;5056869;28;19939;-64
2021/07/08 00:14:00;;;;;;;;;;;;;;;;;;5054763;28;19925;-68
2021/07/08 00:16:27;;;;;;;;;;;;;;;;;;5051968;28;19925;-65
2021/07/08 00:18:54;;;;;;;;;;;;;;;;;;5056110;28;19929;-65
2021/07/08 00:21:21;;;;;;;;;;;;;;;;;;5050781;28;20443;-66
2021/07/08 00:23:47;;;;;;;;;;;;;;;;;;5054189;28;19939;-65
2021/07/08 00:26:14;;;;;;;;;;;;;;;;;;5053205;28;19925;-65
2021/07/08 00:28:41;;;;;;;;;;;;;;;;;;5046079;28;19925;-63
2021/07/08 00:31:08;;;;;;;;;;;;;;;;;;5051397;28;19948;-65
2021/07/08 00:33:35;;;;;;;;;;;;;;;;;;5052368;28;19992;-63
2021/07/08 00:36:02;;;;;;;;;;;;;;;;;;5047094;28;19939;-63
2021/07/08 00:38:29;;;;;;;;;;;;;;;;;;5056345;28;20012;-63
2021/07/08 00:40:56;;;;;;;;;;;;;;;;;;5053023;28;20028;-65
2021/07/08 00:43:23;;;;;;;;;;;;;;;;;;5057419;28;19929;-65
2021/07/08 00:45:50;;;;;;;;;;;;;;;;;;5055203;28;19924;-64
2021/07/08 00:48:17;;;;;;;;;;;;;;;;;;5053255;28;19924;-65
2021/07/08 00:50:46;;;;;;;;;;;;;;;;;;5056451;28;19964;-63
2021/07/08 00:53:13;;;;;;;;;;;;;;;;;;5056621;28;19928;-63
2021/07/08 00:55:40;;;;;;;;;;;;;;;;;;5056559;28;19935;-65
2021/07/08 00:58:07;;;;;;;;;;;;;;;;;;5052961;28;19931;-65
2021/07/08 01:00:34;;;;;;;;;;;;;;;;;;5049691;28;19976;-64
2021/07/08 01:03:03;;;;;;;;;;;;;;;;;;5056489;28;19925;-65
2021/07/08 01:05:30;;;;;;;;;;;;;;;;;;5050219;28;19925;-64
2021/07/08 01:07:57;;;;;;;;;;;;;;;;;;5052441;28;19928;-65
2021/07/08 01:10:24;;;;;;;;;;;;;;;;;;5055408;28;19932;-64
2021/07/08 01:12:51;;;;;;;;;;;;;;;;;;5050565;28;19933;-64
2021/07/08 01:15:20;;;;;;;;;;;;;;;;;;5051530;28;20311;-64
2021/07/08 01:17:48;;;;;;;;;;;;;;;;;;5048858;28;19924;-62
2021/07/08 01:20:16;;;;;;;;;;;;;;;;;;5046535;28;19932;-63
2021/07/08 01:22:43;;;;;;;;;;;;;;;;;;5055241;28;19990;-64
2021/07/08 01:25:10;;;;;;;;;;;;;;;;;;5051729;28;19992;-64
2021/07/08 01:27:37;;;;;;;;;;;;;;;;;;5050671;28;20020;-63
2021/07/08 01:30:04;;;;;;;;;;;;;;;;;;5054507;28;20130;-64
2021/07/08 01:32:31;;;;;;;;;;;;;;;;;;5056282;28;19953;-67
2021/07/08 01:34:58;;;;;;;;;;;;;;;;;;5056572;28;19931;-63
2021/07/08 01:37:25;;;;;;;;;;;;;;;;;;5050334;28;19940;-62
2021/07/08 01:39:52;;;;;;;;;;;;;;;;;;5056072;28;19951;-64
2021/07/08 01:42:20;;;;;;;;;;;;;;;;;;5046255;28;20023;-61
2021/07/08 01:44:47;;;;;;;;;;;;;;;;;;5053649;28;19924;-61
2021/07/08 01:47:14;;;;;;;;;;;;;;;;;;5048398;28;19928;-63
2021/07/08 01:49:41;;;;;;;;;;;;;;;;;;5047788;28;19925;-63
2021/07/08 01:52:08;;;;;;;;;;;;;;;;;;5050278;28;19931;-62
2021/07/08 01:54:35;;;;;;;;;;;;;;;;;;5050349;28;19929;-63
2021/07/08 01:57:02;;;;;;;;;;;;;;;;;;5053801;28;20319;-64
2021/07/08 01:59:29;;;;;;;;;;;;;;;;;;5050393;28;19925;-64
2021/07/08 02:01:56;;;;;;;;;;;;;;;;;;5049720;28;19925;-62
2021/07/08 02:04:23;;;;;;;;;;;;;;;;;;5050507;28;20023;-63
2021/07/08 02:09:35;;;;;;;;;;;;;;;;;;5048615;28;19971;-64
2021/07/08 02:12:02;;;;;;;;;;;;;;;;;;5055022;28;20096;-64
2021/07/08 02:14:29;;;;;;;;;;;;;;;;;;5051402;28;19931;-64
2021/07/08 02:16:56;;;;;;;;;;;;;;;;;;5051239;28;19931;-63
2021/07/08 02:19:22;;;;;;;;;;;;;;;;;;5053673;28;19925;-63
2021/07/08 02:21:49;;;;;;;;;;;;;;;;;;5048434;28;19933;-62
2021/07/08 02:24:16;;;;;;;;;;;;;;;;;;5052896;28;19924;-62
2021/07/08 02:26:43;;;;;;;;;;;;;;;;;;5051043;28;19929;-64
2021/07/08 02:29:10;;;;;;;;;;;;;;;;;;5051620;28;19931;-62
2021/07/08 02:31:37;;;;;;;;;;;;;;;;;;5050357;28;19967;-63
2021/07/08 02:34:04;;;;;;;;;;;;;;;;;;5055342;28;19935;-62
2021/07/08 02:36:31;;;;;;;;;;;;;;;;;;5052793;28;19975;-62
2021/07/08 02:38:58;;;;;;;;;;;;;;;;;;5056141;28;19925;-63
2021/07/08 02:41:25;;;;;;;;;;;;;;;;;;5051025;28;20397;-63
2021/07/08 02:43:52;;;;;;;;;;;;;;;;;;5049272;28;19933;-63
2021/07/08 02:46:19;;;;;;;;;;;;;;;;;;5053281;28;19925;-62
2021/07/08 02:48:46;;;;;;;;;;;;;;;;;;5056105;28;19933;-62
2021/07/08 02:51:13;;;;;;;;;;;;;;;;;;5056580;28;19933;-62
2021/07/08 02:53:40;;;;;;;;;;;;;;;;;;5054016;28;20278;-62
2021/07/08 02:56:07;;;;;;;;;;;;;;;;;;5058935;28;19924;-63
2021/07/08 02:58:34;;;;;;;;;;;;;;;;;;5060410;28;19928;-62
2021/07/08 03:01:01;;;;;;;;;;;;;;;;;;5050337;28;19935;-63
2021/07/08 03:03:27;;;;;;;;;;;;;;;;;;5054868;28;19925;-63
2021/07/08 03:05:54;;;;;;;;;;;;;;;;;;5055794;28;19933;-63
2021/07/08 03:08:21;;;;;;;;;;;;;;;;;;5053091;28;19933;-63
2021/07/08 03:10:48;;;;;;;;;;;;;;;;;;5057321;28;19925;-63
2021/07/08 03:13:15;;;;;;;;;;;;;;;;;;5054188;28;20292;-63
2021/07/08 03:15:42;;;;;;;;;;;;;;;;;;5050547;28;19925;-63
2021/07/08 03:18:09;;;;;;;;;;;;;;;;;;5054312;28;19929;-63
2021/07/08 03:20:36;;;;;;;;;;;;;;;;;;5055585;28;19925;-62
2021/07/08 03:23:03;;;;;;;;;;;;;;;;;;5056361;28;19933;-63
2021/07/08 03:25:30;;;;;;;;;;;;;;;;;;5060600;28;20380;-62
2021/07/08 03:27:57;;;;;;;;;;;;;;;;;;5057034;28;20296;-63
2021/07/08 03:30:24;;;;;;;;;;;;;;;;;;5048845;28;20312;-63
2021/07/08 03:32:51;;;;;;;;;;;;;;;;;;5058633;28;19931;-63
2021/07/08 03:35:18;;;;;;;;;;;;;;;;;;5074026;22;20000;-67
2021/07/08 03:37:45;;;;;;;;;;;;;;;;;;5043742;28;19933;-67
2021/07/08 03:40:12;;;;;;;;;;;;;;;;;;5042631;28;19926;-67
2021/07/08 03:42:39;;;;;;;;;;;;;;;;;;5049959;28;20362;-67
2021/07/08 03:45:06;;;;;;;;;;;;;;;;;;5046798;28;20285;-67
2021/07/08 03:47:33;;;;;;;;;;;;;;;;;;5047001;28;19924;-67
2021/07/08 03:50:00;;;;;;;;;;;;;;;;;;5044536;28;19928;-67
2021/07/08 03:52:27;;;;;;;;;;;;;;;;;;5048341;28;19925;-67
2021/07/08 03:54:54;;;;;;;;;;;;;;;;;;5046794;28;20280;-67
2021/07/08 03:57:21;;;;;;;;;;;;;;;;;;5042860;28;21137;-67
2021/07/08 03:59:48;;;;;;;;;;;;;;;;;;5041009;28;19925;-67
2021/07/08 04:02:15;;;;;;;;;;;;;;;;;;5043783;28;20387;-67
2021/07/08 04:04:42;;;;;;;;;;;;;;;;;;5043494;28;19936;-67
2021/07/08 04:07:09;;;;;;;;;;;;;;;;;;5046874;28;19932;-67
2021/07/08 04:09:36;;;;;;;;;;;;;;;;;;5043767;28;20292;-67
2021/07/08 04:12:03;;;;;;;;;;;;;;;;;;5047006;28;19956;-67
2021/07/08 04:14:30;;;;;;;;;;;;;;;;;;5046637;28;19935;-67
2021/07/08 04:16:57;;;;;;;;;;;;;;;;;;5048571;28;19924;-67
2021/07/08 04:19:24;;;;;;;;;;;;;;;;;;5044854;28;19924;-67
2021/07/08 04:21:51;;;;;;;;;;;;;;;;;;5044378;28;19929;-67
2021/07/08 04:24:18;;;;;;;;;;;;;;;;;;5049746;28;20396;-67
2021/07/08 04:26:45;;;;;;;;;;;;;;;;;;5038183;28;19925;-67
2021/07/08 04:29:12;;;;;;;;;;;;;;;;;;5042831;28;19932;-67
2021/07/08 04:31:38;;;;;;;;;;;;;;;;;;5044449;28;19924;-68
2021/07/08 04:34:05;;;;;;;;;;;;;;;;;;5038577;28;19940;-68
2021/07/08 04:36:32;;;;;;;;;;;;;;;;;;5039134;28;19932;-68
2021/07/08 04:38:59;;;;;;;;;;;;;;;;;;5038627;28;19929;-67
2021/07/08 04:41:26;;;;;;;;;;;;;;;;;;5040785;28;19925;-67
2021/07/08 04:43:53;;;;;;;;;;;;;;;;;;5045393;28;19931;-67
2021/07/08 04:46:20;;;;;;;;;;;;;;;;;;5038510;28;20039;-67
2021/07/08 04:48:47;;;;;;;;;;;;;;;;;;5048209;28;19925;-67
2021/07/08 04:51:14;;;;;;;;;;;;;;;;;;5041165;28;19924;-67
2021/07/08 04:53:41;;;;;;;;;;;;;;;;;;5045841;28;19928;-67
2021/07/08 04:56:08;;;;;;;;;;;;;;;;;;5041806;28;19925;-67
2021/07/08 04:58:35;;;;;;;;;;;;;;;;;;5043745;28;19924;-67
2021/07/08 05:01:02;;;;;;;;;;;;;;;;;;5046120;28;19932;-67
2021/07/08 05:03:29;;;;;;;;;;;;;;;;;;5041694;28;19929;-67
2021/07/08 05:05:56;;;;;;;;;;;;;;;;;;5039851;28;19925;-67
2021/07/08 05:08:23;;;;;;;;;;;;;;;;;;5042606;28;20384;-68
2021/07/08 05:10:50;;;;;;;;;;;;;;;;;;5048688;28;19956;-68
2021/07/08 05:13:17;;;;;;;;;;;;;;;;;;5039679;28;19931;-68
2021/07/08 05:15:44;;;;;;;;;;;;;;;;;;5046146;28;19925;-68
2021/07/08 05:18:11;;;;;;;;;;;;;;;;;;5043380;28;19974;-68
2021/07/08 05:20:39;;;;;;;;;;;;;;;;;;5041197;28;19929;-68
2021/07/08 05:23:13;;;;;;;;;;;;;;;;;;5042112;28;20035;-68
2021/07/08 05:25:40;;;;;;;;;;;;;;;;;;5040720;28;19959;-68
2021/07/08 05:28:07;;;;;;;;;;;;;;;;;;5044964;28;19938;-67
2021/07/08 05:30:34;;;;;;;;;;;;;;;;;;5037930;28;19925;-67
2021/07/08 05:33:01;;;;;;;;;;;;;;;;;;5040894;28;19983;-65
2021/07/08 05:35:28;;;;;;;;;;;;;;;;;;5042462;28;19925;-65
2021/07/08 05:37:55;;;;;;;;;;;;;;;;;;5043176;28;19925;-65
2021/07/08 05:40:23;;;;;;;;;;;;;;;;;;5037522;28;20320;-65
2021/07/08 05:42:51;;;;;;;;;;;;;;;;;;5042344;28;19944;-65
2021/07/08 05:45:19;;;;;;;;;;;;;;;;;;5044457;28;19933;-65
2021/07/08 05:47:46;;;;;;;;;;;;;;;;;;5044420;28;19978;-65
2021/07/08 05:50:13;;;;;;;;;;;;;;;;;;5047753;28;19932;-65
2021/07/08 05:52:40;;;;;;;;;;;;;;;;;;5047013;28;20341;-65
2021/07/08 05:55:07;;;;;;;;;;;;;;;;;;5037648;28;20374;-65
2021/07/08 05:57:34;;;;;;;;;;;;;;;;;;5046913;28;19932;-65
2021/07/08 06:00:01;;;;;;;;;;;;;;;;;;5048542;28;19943;-65
2021/07/08 06:02:28;;;;;;;;;;;;;;;;;;5041342;28;19986;-65
2021/07/08 06:04:55;;;;;;;;;;;;;;;;;;5043655;28;19932;-65
2021/07/08 06:07:22;;;;;;;;;;;;;;;;;;5047229;28;19925;-65
2021/07/08 06:09:49;;;;;;;;;;;;;;;;;;5049252;28;19940;-65
2021/07/08 06:12:16;;;;;;;;;;;;;;;;;;5040556;28;19995;-65
2021/07/08 06:14:43;;;;;;;;;;;;;;;;;;5038299;28;19925;-65
2021/07/08 06:17:10;;;;;;;;;;;;;;;;;;5044536;28;19932;-65
2021/07/08 06:19:37;;;;;;;;;;;;;;;;;;5042310;28;20056;-65
2021/07/08 06:22:04;;;;;;;;;;;;;;;;;;5050641;28;19933;-65
2021/07/08 06:24:31;;;;;;;;;;;;;;;;;;5034422;28;20419;-65
2021/07/08 06:32:27;;;;;;;;;;;;;;;;;;5047829;28;19931;-65
2021/07/08 06:34:54;;;;;;;;;;;;;;;;;;5046547;28;19928;-65
2021/07/08 06:37:21;;;;;;;;;;;;;;;;;;5046927;28;20172;-65
2021/07/08 06:39:50;;;;;;;;;;;;;;;;;;5041989;28;19972;-67
2021/07/08 06:42:17;;;;;;;;;;;;;;;;;;5043574;28;19931;-65
2021/07/08 06:44:44;;;;;;;;;;;;;;;;;;5041846;28;20316;-65
2021/07/08 06:47:14;;;;;;;;;;;;;;;;;;5046207;28;19932;-65
2021/07/08 06:49:41;;;;;;;;;;;;;;;;;;5041217;28;19986;-67
2021/07/08 06:52:08;;;;;;;;;;;;;;;;;;5047125;28;19939;-65
2021/07/08 06:54:35;;;;;;;;;;;;;;;;;;5043037;28;19936;-65
2021/07/08 06:57:02;;;;;;;;;;;;;;;;;;5047250;28;20013;-67
2021/07/08 06:59:29;;;;;;;;;;;;;;;;;;5045797;28;19924;-66
2021/07/08 07:01:56;;;;;;;;;;;;;;;;;;5043321;28;19987;-67
2021/07/08 07:04:23;;;;;;;;;;;;;;;;;;5039798;28;20457;-65
2021/07/08 07:06:50;;;;;;;;;;;;;;;;;;5049770;28;19925;-65
2021/07/08 07:09:19;;;;;;;;;;;;;;;;;;5032470;28;19925;-65
2021/07/08 07:11:46;;;;;;;;;;;;;;;;;;5034282;28;19936;-65
2021/07/08 07:14:13;;;;;;;;;;;;;;;;;;5049246;28;19936;-66
2021/07/08 07:16:40;;;;;;;;;;;;;;;;;;5048844;28;19925;-66
2021/07/08 07:19:07;;;;;;;;;;;;;;;;;;5049062;28;19931;-65
2021/07/08 07:21:34;;;;;;;;;;;;;;;;;;5048612;28;20172;-64
2021/07/08 07:24:02;;;;;;;;;;;;;;;;;;5049648;28;20028;-66
2021/07/08 07:26:29;;;;;;;;;;;;;;;;;;5047659;28;19936;-66
2021/07/08 07:28:56;;;;;;;;;;;;;;;;;;5049558;28;19924;-68
2021/07/08 07:31:23;;;;;;;;;;;;;;;;;;5049201;28;19940;-66
2021/07/08 07:33:50;;;;;;;;;;;;;;;;;;5052621;28;20396;-66
2021/07/08 07:36:17;;;;;;;;;;;;;;;;;;5053657;28;19937;-65
2021/07/08 07:38:44;;;;;;;;;;;;;;;;;;5050128;28;19924;-68
2021/07/08 07:41:11;;;;;;;;;;;;;;;;;;5051379;28;19925;-67
2021/07/08 07:43:38;;;;;;;;;;;;;;;;;;5053046;28;19956;-66
2021/07/08 07:46:05;;;;;;;;;;;;;;;;;;5043491;28;19925;-66
2021/07/08 07:48:33;;;;;;;;;;;;;;;;;;5053316;28;19928;-66
2021/07/08 07:51:00;;;;;;;;;;;;;;;;;;5051595;28;19933;-64
2021/07/08 07:53:27;;;;;;;;;;;;;;;;;;5052501;28;19924;-65
2021/07/08 07:55:54;;;;;;;;;;;;;;;;;;5051401;28;20024;-66
2021/07/08 07:58:22;;;;;;;;;;;;;;;;;;5052997;28;19931;-66
2021/07/08 08:00:49;;;;;;;;;;;;;;;;;;5052875;28;19925;-67
2021/07/08 08:03:16;;;;;;;;;;;;;;;;;;5053364;28;19924;-67
2021/07/08 08:05:54;;;;;;;;;;;;;;;;;;5051128;28;19956;-66
2021/07/08 08:08:30;;;;;;;;;;;;;;;;;;5049033;28;20019;-66
2021/07/08 08:10:57;;;;;;;;;;;;;;;;;;5050025;28;19980;-67
2021/07/08 08:13:24;;;;;;;;;;;;;;;;;;5052241;28;20036;-65
2021/07/08 08:15:52;;;;;;;;;;;;;;;;;;5049548;28;19924;-69
2021/07/08 08:18:19;;;;;;;;;;;;;;;;;;5052537;28;20027;-65
2021/07/08 08:20:46;;;;;;;;;;;;;;;;;;5050796;28;19925;-65
2021/07/08 08:23:13;;;;;;;;;;;;;;;;;;5043300;28;19933;-65
2021/07/08 08:25:40;;;;;;;;;;;;;;;;;;5050934;28;19979;-66
2021/07/08 08:28:07;;;;;;;;;;;;;;;;;;5051409;28;19978;-65
2021/07/08 08:30:34;;;;;;;;;;;;;;;;;;5051751;28;19925;-66
2021/07/08 08:33:01;;;;;;;;;;;;;;;;;;5051121;28;19931;-67
2021/07/08 08:35:28;;;;;;;;;;;;;;;;;;5051942;28;19947;-66
2021/07/08 08:37:55;;;;;;;;;;;;;;;;;;5051841;28;19931;-68
2021/07/08 08:40:22;;;;;;;;;;;;;;;;;;5050879;28;20023;-67
2021/07/08 08:42:49;;;;;;;;;;;;;;;;;;5050415;28;19931;-65
2021/07/08 08:45:18;;;;;;;;;;;;;;;;;;5046801;28;19931;-67
2021/07/08 08:47:45;;;;;;;;;;;;;;;;;;5050460;28;20343;-66
2021/07/08 08:50:12;;;;;;;;;;;;;;;;;;5050665;28;19925;-65
2021/07/08 08:52:39;;;;;;;;;;;;;;;;;;5048876;28;20434;-64
2021/07/08 08:55:06;;;;;;;;;;;;;;;;;;5049213;28;19931;-68
2021/07/08 08:57:35;;;;;;;;;;;;;;;;;;5048965;28;19946;-68
2021/07/08 09:00:02;;;;;;;;;;;;;;;;;;5042425;28;20033;-64
2021/07/08 09:02:29;;;;;;;;;;;;;;;;;;5049227;28;19925;-65
2021/07/08 09:04:56;;;;;;;;;;;;;;;;;;5050761;28;19947;-65
2021/07/08 09:07:23;;;;;;;;;;;;;;;;;;5050316;28;19931;-69
2021/07/08 09:09:50;;;;;;;;;;;;;;;;;;5049929;28;19966;-65
2021/07/08 09:12:18;;;;;;;;;;;;;;;;;;5050687;28;19924;-66
2021/07/08 09:14:45;;;;;;;;;;;;;;;;;;5050336;28;19991;-67
2021/07/08 09:17:12;;;;;;;;;;;;;;;;;;5048736;28;19929;-68
2021/07/08 09:19:39;;;;;;;;;;;;;;;;;;5050741;28;20536;-66
2021/07/08 09:22:06;;;;;;;;;;;;;;;;;;5050065;28;19955;-65
2021/07/08 09:24:34;;;;;;;;;;;;;;;;;;5049170;28;20277;-66
2021/07/08 09:27:02;;;;;;;;;;;;;;;;;;5049780;28;19924;-66
2021/07/08 09:29:29;;;;;;;;;;;;;;;;;;5049090;28;20339;-65
2021/07/08 09:31:56;;;;;;;;;;;;;;;;;;5051476;28;20369;-65
2021/07/08 09:34:23;;;;;;;;;;;;;;;;;;5050474;28;19928;-66
2021/07/08 09:36:50;;;;;;;;;;;;;;;;;;5049194;28;19928;-65
2021/07/08 09:39:17;;;;;;;;;;;;;;;;;;5048042;28;20019;-68
2021/07/08 09:41:44;;;;;;;;;;;;;;;;;;5047619;28;20308;-64
2021/07/08 09:44:11;;;;;;;;;;;;;;;;;;5050556;28;19932;-64
2021/07/08 09:46:38;;;;;;;;;;;;;;;;;;5049533;28;19931;-66
2021/07/08 09:49:05;;;;;;;;;;;;;;;;;;5048178;28;19925;-65
2021/07/08 09:51:32;;;;;;;;;;;;;;;;;;5044097;28;19929;-64
2021/07/08 09:54:05;;;;;;;;;;;;;;;;;;5046054;28;20304;-65
2021/07/08 09:56:43;;;;;;;;;;;;;;;;;;5049363;28;19943;-64
2021/07/08 09:59:10;;;;;;;;;;;;;;;;;;5046162;28;20011;-64
2021/07/08 10:01:37;;;;;;;;;;;;;;;;;;5049080;28;20403;-64
2021/07/08 10:04:04;;;;;;;;;;;;;;;;;;5048991;28;20274;-65
2021/07/08 10:06:31;;;;;;;;;;;;;;;;;;5049800;28;19931;-66
2021/07/08 10:08:58;;;;;;;;;;;;;;;;;;5040950;28;19925;-67
2021/07/08 10:11:24;;;;;;;;;;;;;;;;;;5048484;28;19925;-65
2021/07/08 10:13:51;;;;;;;;;;;;;;;;;;5048884;28;19925;-65
2021/07/08 10:16:18;;;;;;;;;;;;;;;;;;5047681;28;19933;-64
2021/07/08 10:18:45;;;;;;;;;;;;;;;;;;5046194;28;20304;-66
2021/07/08 10:21:12;;;;;;;;;;;;;;;;;;5049588;28;19928;-64
2021/07/08 10:23:39;;;;;;;;;;;;;;;;;;5049553;28;20479;-66
2021/07/08 10:26:06;;;;;;;;;;;;;;;;;;5046933;28;19931;-64
2021/07/08 10:28:34;;;;;;;;;;;;;;;;;;5047672;28;19947;-65
2021/07/08 10:31:00;;;;;;;;;;;;;;;;;;5048975;28;19925;-64
2021/07/08 10:33:27;;;;;;;;;;;;;;;;;;5049499;28;19925;-65
2021/07/08 10:35:54;;;;;;;;;;;;;;;;;;5047781;28;19931;-65
2021/07/08 10:38:21;;;;;;;;;;;;;;;;;;5048325;28;19932;-64
2021/07/08 10:40:48;;;;;;;;;;;;;;;;;;5048652;28;19939;-66
2021/07/08 10:43:16;;;;;;;;;;;;;;;;;;5046739;28;19931;-65
2021/07/08 10:45:43;;;;;;;;;;;;;;;;;;5045414;28;20312;-67
2021/07/08 10:48:10;;;;;;;;;;;;;;;;;;5049934;28;19925;-65
2021/07/08 10:50:37;;;;;;;;;;;;;;;;;;5049130;28;19925;-64
2021/07/08 10:53:04;;;;;;;;;;;;;;;;;;5049511;28;19924;-65
2021/07/08 10:55:31;;;;;;;;;;;;;;;;;;5047429;28;19931;-65
2021/07/08 10:57:58;;;;;;;;;;;;;;;;;;5047289;28;19929;-65
2021/07/08 11:00:25;;;;;;;;;;;;;;;;;;5048536;28;19947;-65
2021/07/08 11:02:52;;;;;;;;;;;;;;;;;;5048531;28;20375;-64
2021/07/08 11:05:19;;;;;;;;;;;;;;;;;;5050134;28;19925;-64
2021/07/08 11:07:46;;;;;;;;;;;;;;;;;;5051974;28;19932;-66
2021/07/08 11:10:13;;;;;;;;;;;;;;;;;;5052474;28;19929;-64
2021/07/08 11:12:40;;;;;;;;;;;;;;;;;;5051853;28;19929;-64
2021/07/08 11:15:07;;;;;;;;;;;;;;;;;;5050911;28;20419;-65
2021/07/08 11:17:34;;;;;;;;;;;;;;;;;;5051806;28;19931;-65
2021/07/08 11:20:02;;;;;;;;;;;;;;;;;;5052501;28;20027;-67
2021/07/08 11:22:28;;;;;;;;;;;;;;;;;;5052354;28;19976;-65
2021/07/08 11:24:55;;;;;;;;;;;;;;;;;;5051761;28;20381;-64
2021/07/08 11:27:22;;;;;;;;;;;;;;;;;;5051326;28;19928;-64
2021/07/08 11:29:49;;;;;;;;;;;;;;;;;;5052675;28;20014;-65
2021/07/08 11:32:16;;;;;;;;;;;;;;;;;;5050750;28;19929;-65
2021/07/08 11:34:46;;;;;;;;;;;;;;;;;;5051582;28;19931;-66
2021/07/08 11:37:13;;;;;;;;;;;;;;;;;;5049530;28;19924;-65
2021/07/08 11:39:40;;;;;;;;;;;;;;;;;;5051553;28;19925;-65
2021/07/08 11:42:07;;;;;;;;;;;;;;;;;;5053179;28;20015;-65
2021/07/08 11:44:34;;;;;;;;;;;;;;;;;;5052235;28;19975;-67
2021/07/08 11:47:01;;;;;;;;;;;;;;;;;;5051325;28;19931;-65
2021/07/08 11:49:28;;;;;;;;;;;;;;;;;;5049970;28;19932;-64
2021/07/08 11:51:55;;;;;;;;;;;;;;;;;;5052293;28;19931;-64
2021/07/08 11:54:22;;;;;;;;;;;;;;;;;;5052121;28;19936;-65
2021/07/08 11:56:49;;;;;;;;;;;;;;;;;;5051482;28;20002;-64
2021/07/08 11:59:16;;;;;;;;;;;;;;;;;;5051465;28;20028;-65
2021/07/08 12:01:43;;;;;;;;;;;;;;;;;;5048493;28;19926;-65
2021/07/08 12:04:10;;;;;;;;;;;;;;;;;;5050842;28;19925;-65
2021/07/08 12:06:37;;;;;;;;;;;;;;;;;;5049227;28;19924;-66
2021/07/08 12:09:05;;;;;;;;;;;;;;;;;;5053158;28;19929;-67
2021/07/08 12:11:34;;;;;;;;;;;;;;;;;;5049032;28;20005;-66
2021/07/08 12:14:01;;;;;;;;;;;;;;;;;;5050481;28;19925;-67
2021/07/08 12:16:30;;;;;;;;;;;;;;;;;;5051104;28;19925;-67
2021/07/08 12:18:57;;;;;;;;;;;;;;;;;;5050201;28;20343;-65
2021/07/08 12:21:24;;;;;;;;;;;;;;;;;;5049893;28;19935;-64
2021/07/08 12:23:51;;;;;;;;;;;;;;;;;;5051299;28;19932;-67
2021/07/08 12:26:18;;;;;;;;;;;;;;;;;;5053509;28;19925;-65
2021/07/08 12:28:45;;;;;;;;;;;;;;;;;;5053447;28;19931;-67
2021/07/08 12:31:12;;;;;;;;;;;;;;;;;;5045302;28;20293;-64
2021/07/08 12:33:39;;;;;;;;;;;;;;;;;;5050455;28;19935;-65
2021/07/08 12:36:06;;;;;;;;;;;;;;;;;;5050761;28;20000;-65
2021/07/08 12:38:33;;;;;;;;;;;;;;;;;;5049791;28;19924;-65
2021/07/08 12:41:00;;;;;;;;;;;;;;;;;;5050860;28;19929;-66
2021/07/08 12:43:27;;;;;;;;;;;;;;;;;;5049643;28;19931;-67
2021/07/08 12:45:54;;;;;;;;;;;;;;;;;;5051629;28;20468;-64
2021/07/08 12:48:21;;;;;;;;;;;;;;;;;;5050768;28;19929;-66
2021/07/08 12:50:48;;;;;;;;;;;;;;;;;;5049961;28;19928;-67
2021/07/08 12:53:15;;;;;;;;;;;;;;;;;;5051634;28;19924;-66
2021/07/08 12:55:42;;;;;;;;;;;;;;;;;;5047997;28;19925;-66
2021/07/08 12:58:09;;;;;;;;;;;;;;;;;;5048791;28;19928;-64
2021/07/08 13:00:36;;;;;;;;;;;;;;;;;;5051049;28;19933;-68
2021/07/08 13:03:03;;;;;;;;;;;;;;;;;;5050266;28;19924;-65
2021/07/08 13:05:30;;;;;;;;;;;;;;;;;;5048227;28;19924;-64
2021/07/08 13:07:57;;;;;;;;;;;;;;;;;;5045461;28;19925;-67
2021/07/08 13:10:24;;;;;;;;;;;;;;;;;;5040577;28;20032;-67
2021/07/08 13:12:51;;;;;;;;;;;;;;;;;;5049705;28;19925;-65
2021/07/08 13:15:18;;;;;;;;;;;;;;;;;;5049420;28;19929;-64
2021/07/08 13:17:45;;;;;;;;;;;;;;;;;;5049185;28;19935;-65
2021/07/08 13:20:12;;;;;;;;;;;;;;;;;;5049343;28;19928;-66
2021/07/08 13:22:40;;;;;;;;;;;;;;;;;;5049076;28;20365;-65
2021/07/08 13:25:07;;;;;;;;;;;;;;;;;;5048889;28;19936;-65
2021/07/08 13:27:34;;;;;;;;;;;;;;;;;;5050024;28;19960;-66
2021/07/08 13:30:01;;;;;;;;;;;;;;;;;;5048745;28;20376;-64
2021/07/08 13:32:28;;;;;;;;;;;;;;;;;;5049655;28;20438;-68
2021/07/08 13:34:55;;;;;;;;;;;;;;;;;;5043110;28;19924;-65
2021/07/08 13:37:22;;;;;;;;;;;;;;;;;;5042598;28;19932;-64
2021/07/08 13:39:51;;;;;;;;;;;;;;;;;;5047398;28;19925;-65
2021/07/08 13:42:18;;;;;;;;;;;;;;;;;;5049932;28;19932;-67
2021/07/08 13:44:45;;;;;;;;;;;;;;;;;;5048270;28;19931;-66
2021/07/08 13:47:12;;;;;;;;;;;;;;;;;;5048022;28;19931;-63
2021/07/08 13:49:40;;;;;;;;;;;;;;;;;;5049586;28;19988;-65
2021/07/08 13:52:07;;;;;;;;;;;;;;;;;;5048589;28;20025;-65
2021/07/08 13:54:35;;;;;;;;;;;;;;;;;;5049169;28;20087;-65
2021/07/08 13:57:02;;;;;;;;;;;;;;;;;;5049910;28;19925;-66
2021/07/08 13:59:29;;;;;;;;;;;;;;;;;;5047831;28;19925;-64
2021/07/08 14:01:58;;;;;;;;;;;;;;;;;;5050018;28;19924;-67
2021/07/08 14:04:25;;;;;;;;;;;;;;;;;;5046937;28;20336;-65
2021/07/08 14:06:52;;;;;;;;;;;;;;;;;;5047698;28;20016;-65
2021/07/08 14:09:21;;;;;;;;;;;;;;;;;;5049362;28;19935;-64
2021/07/08 14:11:48;;;;;;;;;;;;;;;;;;5049740;28;20016;-66
2021/07/08 14:14:15;;;;;;;;;;;;;;;;;;5042180;28;19932;-65
2021/07/08 14:16:42;;;;;;;;;;;;;;;;;;5044592;28;19924;-65
2021/07/08 14:19:09;;;;;;;;;;;;;;;;;;5044214;28;20020;-67
2021/07/08 14:21:36;;;;;;;;;;;;;;;;;;5050101;28;19925;-65
2021/07/08 14:24:03;;;;;;;;;;;;;;;;;;5050037;28;19961;-66
2021/07/08 14:26:30;;;;;;;;;;;;;;;;;;5050051;28;20483;-65
2021/07/08 14:28:57;;;;;;;;;;;;;;;;;;5049455;28;20376;-68
2021/07/08 14:31:24;;;;;;;;;;;;;;;;;;5039959;28;20305;-68
2021/07/08 14:33:51;;;;;;;;;;;;;;;;;;5047234;28;20020;-66
2021/07/08 14:36:18;;;;;;;;;;;;;;;;;;5050345;28;19925;-64
2021/07/08 14:38:45;;;;;;;;;;;;;;;;;;5047283;28;20369;-65
2021/07/08 14:41:12;;;;;;;;;;;;;;;;;;5047608;28;19929;-65
2021/07/08 14:43:40;;;;;;;;;;;;;;;;;;5050837;28;20452;-66
2021/07/08 14:46:07;;;;;;;;;;;;;;;;;;5053108;28;19929;-66
2021/07/08 14:48:34;;;;;;;;;;;;;;;;;;5052411;28;19935;-65
2021/07/08 14:51:01;;;;;;;;;;;;;;;;;;5052473;28;19968;-66
2021/07/08 14:53:28;;;;;;;;;;;;;;;;;;5052175;28;19925;-66
2021/07/08 14:55:55;;;;;;;;;;;;;;;;;;5051044;28;19931;-65
2021/07/08 14:58:22;;;;;;;;;;;;;;;;;;5049243;28;19951;-67
2021/07/08 15:00:49;;;;;;;;;;;;;;;;;;5047421;28;19925;-67
2021/07/08 15:03:17;;;;;;;;;;;;;;;;;;5050711;28;19929;-66
2021/07/08 15:05:44;;;;;;;;;;;;;;;;;;5049133;28;19925;-65
2021/07/08 15:08:11;;;;;;;;;;;;;;;;;;5049156;28;20653;-64
2021/07/08 15:10:38;;;;;;;;;;;;;;;;;;5050386;28;19925;-66
2021/07/08 15:13:05;;;;;;;;;;;;;;;;;;5049656;28;20018;-65
2021/07/08 15:15:32;;;;;;;;;;;;;;;;;;5052248;28;19932;-67
2021/07/08 15:17:59;;;;;;;;;;;;;;;;;;5052303;28;20456;-66
2021/07/08 15:20:26;;;;;;;;;;;;;;;;;;5049618;28;20016;-66
2021/07/08 15:22:53;;;;;;;;;;;;;;;;;;5048048;28;19935;-67
2021/07/08 15:25:20;;;;;;;;;;;;;;;;;;5049597;28;19925;-66
2021/07/08 15:27:47;;;;;;;;;;;;;;;;;;5047115;28;20024;-67
2021/07/08 15:30:14;;;;;;;;;;;;;;;;;;5047412;28;19936;-65
2021/07/08 15:32:41;;;;;;;;;;;;;;;;;;5045340;28;19964;-66
2021/07/08 15:35:08;;;;;;;;;;;;;;;;;;5049447;28;19929;-65
2021/07/08 15:37:35;;;;;;;;;;;;;;;;;;5046774;28;20027;-66
2021/07/08 15:40:02;;;;;;;;;;;;;;;;;;5044021;28;19931;-66
2021/07/08 15:42:29;;;;;;;;;;;;;;;;;;5047062;28;19935;-66
2021/07/08 15:44:56;;;;;;;;;;;;;;;;;;5045171;28;19964;-65
2021/07/08 15:47:23;;;;;;;;;;;;;;;;;;5048170;28;19947;-64
2021/07/08 15:49:51;;;;;;;;;;;;;;;;;;5046418;28;20346;-65
2021/07/08 15:52:18;;;;;;;;;;;;;;;;;;5044709;28;19933;-67
2021/07/08 15:54:45;;;;;;;;;;;;;;;;;;5046291;28;20020;-66
2021/07/08 15:57:12;;;;;;;;;;;;;;;;;;5046924;28;19924;-65
2021/07/08 15:59:39;;;;;;;;;;;;;;;;;;5046518;28;20304;-66
2021/07/08 16:02:07;;;;;;;;;;;;;;;;;;5043458;28;19928;-64
2021/07/08 16:04:34;;;;;;;;;;;;;;;;;;5045069;28;20383;-66
2021/07/08 16:07:01;;;;;;;;;;;;;;;;;;5047016;28;19968;-65
2021/07/08 16:09:28;;;;;;;;;;;;;;;;;;5046611;28;20407;-64
2021/07/08 16:11:55;;;;;;;;;;;;;;;;;;5047191;28;20035;-63
2021/07/08 16:14:23;;;;;;;;;;;;;;;;;;5047511;28;19925;-65
2021/07/08 16:16:50;;;;;;;;;;;;;;;;;;5043507;28;19925;-65
2021/07/08 16:19:17;;;;;;;;;;;;;;;;;;5044790;28;19925;-66
2021/07/08 16:21:45;;;;;;;;;;;;;;;;;;5043605;28;19939;-65
2021/07/08 16:24:12;;;;;;;;;;;;;;;;;;5046901;28;20014;-66
2021/07/08 16:26:39;;;;;;;;;;;;;;;;;;5046027;28;19925;-65
2021/07/08 16:29:06;;;;;;;;;;;;;;;;;;5045818;28;19925;-66
2021/07/08 16:31:33;;;;;;;;;;;;;;;;;;5047043;28;19990;-66
2021/07/08 16:34:00;;;;;;;;;;;;;;;;;;5044127;28;20024;-64
2021/07/08 16:36:27;;;;;;;;;;;;;;;;;;5049185;28;19931;-65
2021/07/08 16:38:54;;;;;;;;;;;;;;;;;;5046023;28;20016;-65
2021/07/08 16:41:21;;;;;;;;;;;;;;;;;;5046112;28;19932;-66
2021/07/08 16:43:48;;;;;;;;;;;;;;;;;;5045834;28;19925;-65
2021/07/08 16:46:15;;;;;;;;;;;;;;;;;;5045118;28;19935;-66
2021/07/08 16:48:42;;;;;;;;;;;;;;;;;;5046821;28;20019;-66
2021/07/08 16:51:12;;;;;;;;;;;;;;;;;;5046044;28;20016;-65
2021/07/08 16:53:39;;;;;;;;;;;;;;;;;;5044163;28;20012;-66